Time;durP1;ratioP1;P1;durP2;ratioP2;P2;SDS_P1;SDS_P2;PMS_P1;PMS_P2;Temp;Humidity;BMP_temperature;BMP_pressure;BME280_temperature;BME280_humidity;BME280_pressure;Samples;Min_cycle;Max_cycle;Signal;HPM_P1;HPM_P2
2023/09/21 00:00:19;;;;;;;4.40;3.03;;;;;;;;;;5034861;28;20539;-75
2023/09/21 00:02:51;;;;;;;5.33;3.83;;;;;;;;;;5034956;28;20916;-74
2023/09/21 00:05:21;;;;;;;3.67;2.90;;;;;;;;;;5035065;28;20467;-75
2023/09/21 00:07:50;;;;;;;4.50;3.13;;;;;;;;;;5034874;28;20438;-75
2023/09/21 00:10:19;;;;;;;5.00;3.00;;;;;;;;;;5035107;28;20492;-75
2023/09/21 00:12:46;;;;;;;4.00;2.30;;;;;;;;;;5035230;28;20489;-75
2023/09/21 00:15:21;;;;;;;3.90;2.80;;;;;;;;;;5034512;28;20443;-75
2023/09/21 00:17:51;;;;;;;3.60;2.60;;;;;;;;;;5035005;28;20768;-75
2023/09/21 00:20:23;;;;;;;4.73;3.20;;;;;;;;;;5034858;28;20469;-75
2023/09/21 00:22:53;;;;;;;6.33;2.63;;;;;;;;;;5034987;28;20835;-75
2023/09/21 00:25:21;;;;;;;3.77;2.97;;;;;;;;;;5034686;28;20434;-75
2023/09/21 00:27:48;;;;;;;4.03;2.97;;;;;;;;;;5034808;28;20445;-75
2023/09/21 00:30:15;;;;;;;8.67;2.70;;;;;;;;;;5034647;28;20489;-74
2023/09/21 00:32:43;;;;;;;4.37;2.20;;;;;;;;;;5034265;28;20442;-75
2023/09/21 00:35:11;;;;;;;9.10;2.40;;;;;;;;;;5048382;28;20491;-76
2023/09/21 00:37:39;;;;;;;5.50;2.70;;;;;;;;;;5054536;28;20444;-75
2023/09/21 00:40:20;;;;;;;5.40;2.70;;;;;;;;;;5054485;28;20465;-75
2023/09/21 00:42:47;;;;;;;4.30;2.70;;;;;;;;;;5054145;28;20429;-75
2023/09/21 00:45:15;;;;;;;6.00;2.67;;;;;;;;;;5053880;28;20468;-75
2023/09/21 00:47:43;;;;;;;3.60;2.70;;;;;;;;;;5053546;28;20920;-75
2023/09/21 00:50:11;;;;;;;5.33;2.40;;;;;;;;;;5053993;28;20441;-75
2023/09/21 00:52:40;;;;;;;2.87;1.60;;;;;;;;;;5054238;28;20846;-75
2023/09/21 00:55:08;;;;;;;4.37;2.50;;;;;;;;;;5054233;28;20519;-75
2023/09/21 00:57:37;;;;;;;4.77;2.27;;;;;;;;;;5053420;28;20952;-74
2023/09/21 01:00:12;;;;;;;3.23;2.10;;;;;;;;;;5053596;28;20579;-75
2023/09/21 01:02:40;;;;;;;3.50;2.30;;;;;;;;;;5053942;28;20504;-74
2023/09/21 01:05:07;;;;;;;5.90;2.53;;;;;;;;;;5054045;28;20898;-75
2023/09/21 01:07:36;;;;;;;3.07;2.30;;;;;;;;;;5045350;28;20963;-75
2023/09/21 01:10:07;;;;;;;4.40;2.10;;;;;;;;;;5053090;28;20441;-75
2023/09/21 01:12:35;;;;;;;5.73;2.50;;;;;;;;;;5054291;28;20425;-75
2023/09/21 01:15:08;;;;;;;6.87;2.73;;;;;;;;;;5053854;28;20445;-75
2023/09/21 01:17:36;;;;;;;4.80;3.53;;;;;;;;;;5053447;28;20479;-75
2023/09/21 01:20:18;;;;;;;4.17;3.10;;;;;;;;;;5053734;28;20476;-75
2023/09/21 01:22:47;;;;;;;3.93;2.63;;;;;;;;;;5053766;28;20422;-75
2023/09/21 01:25:16;;;;;;;4.80;2.70;;;;;;;;;;5053769;28;20437;-75
2023/09/21 01:27:43;;;;;;;4.83;3.20;;;;;;;;;;5050997;28;20515;-75
2023/09/21 01:30:12;;;;;;;5.30;2.80;;;;;;;;;;5053147;28;20487;-75
2023/09/21 01:32:40;;;;;;;5.57;3.13;;;;;;;;;;5053543;28;20440;-75
2023/09/21 01:35:09;;;;;;;5.07;3.13;;;;;;;;;;5053633;28;20858;-75
2023/09/21 01:37:36;;;;;;;4.70;3.00;;;;;;;;;;5053588;28;20841;-75
2023/09/21 01:40:09;;;;;;;6.40;2.83;;;;;;;;;;5053519;28;20484;-74
2023/09/21 01:42:38;;;;;;;4.60;3.00;;;;;;;;;;5053572;28;20439;-75
2023/09/21 01:45:11;;;;;;;3.93;2.53;;;;;;;;;;5053721;28;20438;-75
2023/09/21 01:47:38;;;;;;;2.70;1.93;;;;;;;;;;5052952;28;20437;-75
2023/09/21 01:50:09;;;;;;;4.90;2.10;;;;;;;;;;5053209;28;20441;-75
2023/09/21 01:52:37;;;;;;;3.50;2.07;;;;;;;;;;5053166;28;20440;-75
2023/09/21 01:55:10;;;;;;;3.20;2.03;;;;;;;;;;5053624;28;20429;-75
2023/09/21 01:57:38;;;;;;;4.97;2.73;;;;;;;;;;5051727;28;20433;-75
2023/09/21 02:00:12;;;;;;;5.13;2.47;;;;;;;;;;5053137;28;20488;-75
2023/09/21 02:02:40;;;;;;;3.50;2.80;;;;;;;;;;5052820;28;20440;-76
2023/09/21 02:05:11;;;;;;;3.73;2.30;;;;;;;;;;5053047;28;20528;-74
2023/09/21 02:07:40;;;;;;;2.90;1.93;;;;;;;;;;5053422;28;20464;-75
2023/09/21 02:10:11;;;;;;;3.10;2.37;;;;;;;;;;5053063;28;20974;-75
2023/09/21 02:12:40;;;;;;;4.30;2.20;;;;;;;;;;5053116;28;20453;-75
2023/09/21 02:15:12;;;;;;;3.60;2.10;;;;;;;;;;5052619;28;20441;-74
2023/09/21 02:17:40;;;;;;;3.50;2.30;;;;;;;;;;5053418;28;20509;-75
2023/09/21 02:20:13;;;;;;;4.93;2.33;;;;;;;;;;5053113;28;20818;-75
2023/09/21 02:22:42;;;;;;;5.60;2.30;;;;;;;;;;5052766;28;20438;-75
2023/09/21 02:25:11;;;;;;;4.10;2.60;;;;;;;;;;5053163;28;20575;-74
2023/09/21 02:27:40;;;;;;;3.30;2.40;;;;;;;;;;5052769;28;20440;-75
2023/09/21 02:30:14;;;;;;;6.47;2.63;;;;;;;;;;5049140;28;20478;-74
2023/09/21 02:32:42;;;;;;;3.90;2.40;;;;;;;;;;5051846;28;20429;-75
2023/09/21 02:35:13;;;;;;;3.10;2.30;;;;;;;;;;5053059;28;20436;-75
2023/09/21 02:37:40;;;;;;;2.70;1.93;;;;;;;;;;5052803;28;20433;-75
2023/09/21 02:40:12;;;;;;;3.90;2.57;;;;;;;;;;5055303;28;20557;-75
2023/09/21 02:42:43;;;;;;;3.77;2.20;;;;;;;;;;5056428;28;20430;-75
2023/09/21 02:45:11;;;;;;;3.93;2.70;;;;;;;;;;5056920;28;20482;-75
2023/09/21 02:47:38;;;;;;;5.57;2.70;;;;;;;;;;5056831;28;20433;-75
2023/09/21 02:50:14;;;;;;;3.87;2.47;;;;;;;;;;5056620;28;20429;-75
2023/09/21 02:52:45;;;;;;;5.30;2.87;;;;;;;;;;5055452;28;20486;-74
2023/09/21 02:55:13;;;;;;;3.50;2.67;;;;;;;;;;5056781;28;20810;-75
2023/09/21 02:57:40;;;;;;;5.07;2.33;;;;;;;;;;5056476;28;20502;-75
2023/09/21 03:00:21;;;;;;;3.47;2.53;;;;;;;;;;5056034;28;20500;-75
2023/09/21 03:02:48;;;;;;;3.27;2.67;;;;;;;;;;5056343;28;20430;-75
2023/09/21 03:05:16;;;;;;;6.97;2.40;;;;;;;;;;5055773;28;20444;-75
2023/09/21 03:07:44;;;;;;;3.40;2.57;;;;;;;;;;5056003;28;20934;-75
2023/09/21 03:10:11;;;;;;;5.23;2.83;;;;;;;;;;5056162;28;20465;-75
2023/09/21 03:12:39;;;;;;;4.50;2.57;;;;;;;;;;5055469;28;20450;-75
2023/09/21 03:15:13;;;;;;;3.70;2.00;;;;;;;;;;5056159;28;20442;-75
2023/09/21 03:17:42;;;;;;;5.03;2.47;;;;;;;;;;5055261;28;20441;-75
2023/09/21 03:20:25;;;;;;;3.70;2.40;;;;;;;;;;5055945;28;20448;-75
2023/09/21 03:22:54;;;;;;;3.90;2.80;;;;;;;;;;5056039;28;20423;-75
2023/09/21 03:25:27;;;;;;;5.10;2.87;;;;;;;;;;5055603;28;20448;-75
2023/09/21 03:27:55;;;;;;;3.97;2.50;;;;;;;;;;5054299;28;20486;-74
2023/09/21 03:30:23;;;;;;;3.83;2.37;;;;;;;;;;5035543;28;20498;-75
2023/09/21 03:32:52;;;;;;;2.97;2.33;;;;;;;;;;5035832;28;20469;-75
2023/09/21 03:35:20;;;;;;;5.10;2.60;;;;;;;;;;5035497;28;20529;-75
2023/09/21 03:37:49;;;;;;;3.77;2.80;;;;;;;;;;5036013;28;20441;-75
2023/09/21 03:40:17;;;;;;;3.60;2.60;;;;;;;;;;5043946;28;20486;-75
2023/09/21 03:42:47;;;;;;;3.43;1.97;;;;;;;;;;5035706;28;20860;-75
2023/09/21 03:45:16;;;;;;;3.90;2.90;;;;;;;;;;5036019;28;20429;-76
2023/09/21 03:47:43;;;;;;;3.70;2.53;;;;;;;;;;5035077;28;20448;-75
2023/09/21 03:50:14;;;;;;;4.30;2.70;;;;;;;;;;5045202;28;20509;-75
2023/09/21 03:52:41;;;;;;;4.20;2.50;;;;;;;;;;5054625;28;20454;-75
2023/09/21 03:55:15;;;;;;;3.77;2.90;;;;;;;;;;5055059;28;20524;-75
2023/09/21 03:57:43;;;;;;;5.20;2.97;;;;;;;;;;5055292;28;20508;-75
2023/09/21 04:00:23;;;;;;;3.60;2.73;;;;;;;;;;5055325;28;20548;-75
2023/09/21 04:02:50;;;;;;;3.20;2.33;;;;;;;;;;5040231;28;20793;-75
2023/09/21 04:05:20;;;;;;;12.33;2.37;;;;;;;;;;5050455;28;20938;-75
2023/09/21 04:07:47;;;;;;;5.40;3.07;;;;;;;;;;5041719;28;20518;-75
2023/09/21 04:10:16;;;;;;;4.50;3.10;;;;;;;;;;5054819;28;20474;-75
2023/09/21 04:12:43;;;;;;;5.23;2.53;;;;;;;;;;5055027;28;20494;-75
2023/09/21 04:15:11;;;;;;;8.03;3.10;;;;;;;;;;5037817;28;20441;-75
2023/09/21 04:17:39;;;;;;;4.90;3.03;;;;;;;;;;5034896;28;20444;-75
2023/09/21 04:20:10;;;;;;;3.70;2.87;;;;;;;;;;5034626;28;20436;-75
2023/09/21 04:22:39;;;;;;;3.90;2.57;;;;;;;;;;5034530;28;20473;-75
2023/09/21 04:25:09;;;;;;;4.23;2.70;;;;;;;;;;5034641;28;20482;-75
2023/09/21 04:27:38;;;;;;;8.17;2.80;;;;;;;;;;5015150;28;20787;-75
2023/09/21 04:30:08;;;;;;;5.57;2.80;;;;;;;;;;5015010;28;20477;-75
2023/09/21 04:32:36;;;;;;;4.70;2.70;;;;;;;;;;5014881;28;20441;-75
2023/09/21 04:35:05;;;;;;;3.77;2.60;;;;;;;;;;5027649;28;20473;-75
2023/09/21 04:37:33;;;;;;;7.70;2.77;;;;;;;;;;5037987;28;20440;-75
2023/09/21 04:40:04;;;;;;;3.43;2.50;;;;;;;;;;5054167;28;20489;-75
2023/09/21 04:42:31;;;;;;;3.57;2.50;;;;;;;;;;5054066;28;20463;-74
2023/09/21 04:44:59;;;;;;;3.50;2.63;;;;;;;;;;5054021;28;20444;-75
2023/09/21 04:47:27;;;;;;;5.47;2.80;;;;;;;;;;5044615;28;20499;-75
2023/09/21 04:49:55;;;;;;;4.83;2.73;;;;;;;;;;5033994;28;20437;-75
2023/09/21 04:52:27;;;;;;;5.40;2.90;;;;;;;;;;5032028;28;20481;-75
2023/09/21 04:54:54;;;;;;;3.70;2.40;;;;;;;;;;5033548;28;20468;-75
2023/09/21 04:57:23;;;;;;;4.30;3.07;;;;;;;;;;5040872;28;21008;-75
2023/09/21 04:59:52;;;;;;;4.80;2.50;;;;;;;;;;5053452;28;20868;-75
2023/09/21 05:02:19;;;;;;;4.03;2.97;;;;;;;;;;5053304;28;20464;-75
2023/09/21 05:04:46;;;;;;;5.03;2.40;;;;;;;;;;5051470;28;20458;-75
2023/09/21 05:07:14;;;;;;;5.20;2.77;;;;;;;;;;5053029;28;20490;-75
2023/09/21 05:09:43;;;;;;;3.90;2.97;;;;;;;;;;5051738;28;20794;-75
2023/09/21 05:12:10;;;;;;;5.10;2.70;;;;;;;;;;5052758;28;20453;-75
2023/09/21 05:14:39;;;;;;;6.20;2.70;;;;;;;;;;5052771;28;20475;-75
2023/09/21 05:17:06;;;;;;;3.40;2.10;;;;;;;;;;5052910;28;20442;-75
2023/09/21 05:19:34;;;;;;;4.23;2.27;;;;;;;;;;5047449;28;20436;-75
2023/09/21 05:22:01;;;;;;;2.77;1.97;;;;;;;;;;5032729;28;20531;-75
2023/09/21 05:24:29;;;;;;;7.67;5.63;;;;;;;;;;5032998;28;20445;-75
2023/09/21 05:26:56;;;;;;;3.70;2.60;;;;;;;;;;5032886;28;20441;-76
2023/09/21 05:29:24;;;;;;;5.23;2.53;;;;;;;;;;5032790;28;20517;-75
2023/09/21 05:31:53;;;;;;;4.17;2.53;;;;;;;;;;5036819;28;20900;-75
2023/09/21 05:34:20;;;;;;;4.03;2.10;;;;;;;;;;5052807;28;20471;-75
2023/09/21 05:36:50;;;;;;;4.93;2.87;;;;;;;;;;5052791;28;20435;-75
2023/09/21 05:39:19;;;;;;;3.90;2.60;;;;;;;;;;5052592;28;20444;-74
2023/09/21 05:41:52;;;;;;;5.63;2.60;;;;;;;;;;5051959;28;20872;-73
2023/09/21 05:44:21;;;;;;;5.07;2.80;;;;;;;;;;5043301;28;20491;-75
2023/09/21 05:46:49;;;;;;;4.83;3.13;;;;;;;;;;5036178;28;20485;-75
2023/09/21 05:49:22;;;;;;;10.43;3.77;;;;;;;;;;5041041;28;20468;-75
2023/09/21 05:51:52;;;;;;;4.20;3.40;;;;;;;;;;5046473;28;20460;-75
2023/09/21 05:54:21;;;;;;;4.23;2.90;;;;;;;;;;5032685;28;20529;-74
2023/09/21 05:56:48;;;;;;;7.60;5.77;;;;;;;;;;5025710;28;20529;-74
2023/09/21 05:59:17;;;;;;;9.13;3.83;;;;;;;;;;5036097;28;20449;-74
2023/09/21 06:01:44;;;;;;;5.80;3.97;;;;;;;;;;5031719;28;20876;-75
2023/09/21 06:04:12;;;;;;;4.10;3.47;;;;;;;;;;5032478;28;20584;-75
2023/09/21 06:06:41;;;;;;;5.37;3.30;;;;;;;;;;5032180;28;20837;-74
2023/09/21 06:09:10;;;;;;;5.70;3.30;;;;;;;;;;5035049;28;20504;-75
2023/09/21 06:11:39;;;;;;;5.40;3.07;;;;;;;;;;5043491;28;20445;-74
2023/09/21 06:14:06;;;;;;;7.80;2.93;;;;;;;;;;5052847;28;20489;-74
2023/09/21 06:16:33;;;;;;;5.43;3.63;;;;;;;;;;5056852;28;20791;-74
2023/09/21 06:19:01;;;;;;;7.00;4.37;;;;;;;;;;5054762;28;20476;-74
2023/09/21 06:21:30;;;;;;;6.03;3.93;;;;;;;;;;5055938;28;20500;-75
2023/09/21 06:23:59;;;;;;;5.20;3.30;;;;;;;;;;5052292;28;20446;-74
2023/09/21 06:26:26;;;;;;;6.00;2.80;;;;;;;;;;5039730;28;20438;-75
2023/09/21 06:28:53;;;;;;;7.57;3.53;;;;;;;;;;5036242;28;20472;-74
2023/09/21 06:31:21;;;;;;;6.30;3.13;;;;;;;;;;5036692;28;20539;-74
2023/09/21 06:33:49;;;;;;;6.27;3.67;;;;;;;;;;5036642;28;20438;-74
2023/09/21 06:36:18;;;;;;;4.37;3.20;;;;;;;;;;5036601;28;20757;-74
2023/09/21 06:38:45;;;;;;;7.43;4.10;;;;;;;;;;5036159;28;20446;-74
2023/09/21 06:41:14;;;;;;;6.37;3.93;;;;;;;;;;5036591;28;20810;-74
2023/09/21 06:43:43;;;;;;;7.90;4.47;;;;;;;;;;5036678;28;20839;-74
2023/09/21 06:46:10;;;;;;;6.00;3.80;;;;;;;;;;5036451;28;20530;-74
2023/09/21 06:48:37;;;;;;;7.53;3.30;;;;;;;;;;5036055;28;20434;-74
2023/09/21 06:51:07;;;;;;;4.77;2.90;;;;;;;;;;5036111;28;20488;-74
2023/09/21 06:53:35;;;;;;;6.50;3.23;;;;;;;;;;5036567;28;20422;-74
2023/09/21 06:56:02;;;;;;;4.00;2.47;;;;;;;;;;5035926;28;20504;-75
2023/09/21 06:58:31;;;;;;;4.60;2.57;;;;;;;;;;5036037;28;20529;-75
2023/09/21 07:00:58;;;;;;;5.60;2.73;;;;;;;;;;5036183;28;20848;-75
2023/09/21 07:03:26;;;;;;;4.60;3.10;;;;;;;;;;5035929;28;20571;-75
2023/09/21 07:05:53;;;;;;;3.90;2.50;;;;;;;;;;5036386;28;20442;-75
2023/09/21 07:08:21;;;;;;;5.00;2.10;;;;;;;;;;5035789;28;20663;-75
2023/09/21 07:10:49;;;;;;;3.50;2.33;;;;;;;;;;5035962;28;20438;-75
2023/09/21 07:13:18;;;;;;;3.70;1.70;;;;;;;;;;5036027;28;20454;-75
2023/09/21 07:15:47;;;;;;;3.37;1.80;;;;;;;;;;5036012;28;20529;-75
2023/09/21 07:18:15;;;;;;;3.00;2.10;;;;;;;;;;5035867;28;20790;-75
2023/09/21 07:20:42;;;;;;;3.00;1.70;;;;;;;;;;5035615;28;20438;-75
2023/09/21 07:23:09;;;;;;;4.17;2.20;;;;;;;;;;5035794;28;20544;-75
2023/09/21 07:25:37;;;;;;;4.80;2.27;;;;;;;;;;5035716;28;20795;-75
2023/09/21 07:28:05;;;;;;;4.07;1.97;;;;;;;;;;5035901;28;20473;-75
2023/09/21 07:30:33;;;;;;;4.03;2.10;;;;;;;;;;5035399;28;20852;-75
2023/09/21 07:33:02;;;;;;;5.13;2.10;;;;;;;;;;5035590;28;20443;-75
2023/09/21 07:35:30;;;;;;;4.30;2.40;;;;;;;;;;5035551;28;20483;-75
2023/09/21 07:37:57;;;;;;;5.20;2.20;;;;;;;;;;5035535;28;20460;-75
2023/09/21 07:40:24;;;;;;;4.40;1.80;;;;;;;;;;5035875;28;20430;-75
2023/09/21 07:42:51;;;;;;;4.20;1.70;;;;;;;;;;5035002;28;20976;-75
2023/09/21 07:45:20;;;;;;;2.97;1.60;;;;;;;;;;5035058;28;20525;-75
2023/09/21 07:47:47;;;;;;;3.67;1.93;;;;;;;;;;5034962;28;20521;-75
2023/09/21 07:50:18;;;;;;;3.03;1.87;;;;;;;;;;5035468;28;20446;-76
2023/09/21 07:52:46;;;;;;;4.27;2.00;;;;;;;;;;5035289;28;20445;-75
2023/09/21 07:55:13;;;;;;;3.40;1.90;;;;;;;;;;5035216;28;20478;-75
2023/09/21 07:57:41;;;;;;;5.43;2.00;;;;;;;;;;5034777;28;20438;-76
2023/09/21 08:00:09;;;;;;;3.60;1.97;;;;;;;;;;5035161;28;20817;-75
2023/09/21 08:02:36;;;;;;;2.93;1.80;;;;;;;;;;5035037;28;20568;-76
2023/09/21 08:05:04;;;;;;;3.83;2.40;;;;;;;;;;5035260;28;20480;-75
2023/09/21 08:07:33;;;;;;;4.90;2.17;;;;;;;;;;5034866;28;20449;-75
2023/09/21 08:10:03;;;;;;;5.47;2.63;;;;;;;;;;5034874;28;20427;-76
2023/09/21 08:12:30;;;;;;;7.60;2.53;;;;;;;;;;5034627;28;20426;-75
2023/09/21 08:14:59;;;;;;;3.00;1.97;;;;;;;;;;5034812;28;20530;-75
2023/09/21 08:17:26;;;;;;;3.10;2.10;;;;;;;;;;5034711;28;20438;-76
2023/09/21 08:19:53;;;;;;;5.57;2.60;;;;;;;;;;5034306;28;20779;-76
2023/09/21 08:22:21;;;;;;;7.80;2.53;;;;;;;;;;5034579;28;20874;-76
2023/09/21 08:24:50;;;;;;;3.13;1.77;;;;;;;;;;5034268;28;20446;-76
2023/09/21 08:27:18;;;;;;;4.80;2.60;;;;;;;;;;5034588;28;20799;-76
2023/09/21 08:29:45;;;;;;;4.90;1.93;;;;;;;;;;5034271;28;20442;-76
2023/09/21 08:32:12;;;;;;;6.73;2.27;;;;;;;;;;5034405;28;20446;-76
2023/09/21 08:34:40;;;;;;;3.93;1.83;;;;;;;;;;5034491;28;20513;-76
2023/09/21 08:37:08;;;;;;;3.33;1.80;;;;;;;;;;5034200;28;20442;-76
2023/09/21 08:39:35;;;;;;;4.30;2.20;;;;;;;;;;5034103;28;20434;-75
2023/09/21 08:42:03;;;;;;;4.57;2.20;;;;;;;;;;5034234;28;20506;-76
2023/09/21 08:44:32;;;;;;;5.10;2.00;;;;;;;;;;5033965;28;20434;-76
2023/09/21 08:47:00;;;;;;;4.80;2.23;;;;;;;;;;5033857;28;20441;-76
2023/09/21 08:49:28;;;;;;;7.30;2.50;;;;;;;;;;5033862;28;20431;-76
2023/09/21 08:51:58;;;;;;;5.97;2.27;;;;;;;;;;5034082;28;20434;-76
2023/09/21 08:54:25;;;;;;;5.60;2.20;;;;;;;;;;5034471;28;20460;-75
2023/09/21 08:56:55;;;;;;;6.93;2.13;;;;;;;;;;5033974;28;20445;-76
2023/09/21 08:59:25;;;;;;;5.90;2.50;;;;;;;;;;5034022;28;20499;-76
2023/09/21 09:01:54;;;;;;;4.60;2.17;;;;;;;;;;5033929;28;20789;-76
2023/09/21 09:04:21;;;;;;;3.17;1.60;;;;;;;;;;5033920;28;20437;-76
2023/09/21 09:06:49;;;;;;;4.20;2.97;;;;;;;;;;5034031;28;20852;-76
2023/09/21 09:09:16;;;;;;;3.67;2.40;;;;;;;;;;5033649;28;20774;-76
2023/09/21 09:11:45;;;;;;;5.20;2.30;;;;;;;;;;5033803;28;20465;-76
2023/09/21 09:14:16;;;;;;;4.80;2.37;;;;;;;;;;5033628;28;21094;-76
2023/09/21 09:16:46;;;;;;;4.40;1.70;;;;;;;;;;5033747;28;20434;-76
2023/09/21 09:19:13;;;;;;;5.23;2.13;;;;;;;;;;5033726;28;20484;-76
2023/09/21 09:21:40;;;;;;;5.17;1.93;;;;;;;;;;5033741;28;20437;-76
2023/09/21 09:24:11;;;;;;;6.33;1.90;;;;;;;;;;5033383;28;20437;-76
2023/09/21 09:26:39;;;;;;;7.43;1.90;;;;;;;;;;5033733;28;20421;-76
2023/09/21 09:29:06;;;;;;;3.87;2.20;;;;;;;;;;5033869;28;20866;-76
2023/09/21 09:31:34;;;;;;;5.70;2.50;;;;;;;;;;5033470;28;20853;-76
2023/09/21 09:34:04;;;;;;;2.80;1.60;;;;;;;;;;5033353;28;20502;-76
2023/09/21 09:36:33;;;;;;;4.50;1.97;;;;;;;;;;5033270;28;20614;-76
2023/09/21 09:39:00;;;;;;;5.67;2.30;;;;;;;;;;5033163;28;20465;-76
2023/09/21 09:41:28;;;;;;;10.33;2.40;;;;;;;;;;5033466;28;20468;-77
2023/09/21 09:43:58;;;;;;;5.18;2.28;;;;;;;;;;5033496;28;20515;-76
2023/09/21 09:46:27;;;;;;;6.33;2.00;;;;;;;;;;5033080;28;20950;-76
2023/09/21 09:48:57;;;;;;;5.90;1.80;;;;;;;;;;5032335;28;20444;-75
2023/09/21 09:51:28;;;;;;;7.40;2.60;;;;;;;;;;5033017;28;20437;-74
2023/09/21 09:53:56;;;;;;;5.07;1.80;;;;;;;;;;5033068;28;20986;-74
2023/09/21 09:56:24;;;;;;;3.00;1.47;;;;;;;;;;5032948;28;20194;-74
2023/09/21 09:58:51;;;;;;;5.60;2.00;;;;;;;;;;5033275;28;20441;-74
2023/09/21 10:01:19;;;;;;;7.30;1.90;;;;;;;;;;5033495;28;20214;-74
2023/09/21 10:03:50;;;;;;;3.33;1.98;;;;;;;;;;5033143;28;20449;-74
2023/09/21 10:06:18;;;;;;;2.10;1.55;;;;;;;;;;5032818;28;20194;-74
2023/09/21 10:08:47;;;;;;;4.18;2.13;;;;;;;;;;5033230;28;20191;-74
2023/09/21 10:11:16;;;;;;;9.77;1.80;;;;;;;;;;5032961;28;20256;-74
2023/09/21 10:13:51;;;;;;;6.00;2.13;;;;;;;;;;5032708;28;20695;-74
2023/09/21 10:16:20;;;;;;;3.85;1.83;;;;;;;;;;5033126;28;20182;-74
2023/09/21 10:18:53;;;;;;;2.72;1.55;;;;;;;;;;5032702;28;20191;-74
2023/09/21 10:21:24;;;;;;;3.63;1.90;;;;;;;;;;5033236;28;20522;-74
2023/09/21 10:24:06;;;;;;;3.30;1.98;;;;;;;;;;5033137;28;20183;-74
2023/09/21 10:26:38;;;;;;;4.28;2.03;;;;;;;;;;5033215;28;20540;-75
2023/09/21 10:29:07;;;;;;;3.35;1.90;;;;;;;;;;5032684;28;20201;-75
2023/09/21 10:31:34;;;;;;;3.55;1.88;;;;;;;;;;5032583;28;20190;-74
2023/09/21 10:34:11;;;;;;;2.53;1.90;;;;;;;;;;5032813;28;20214;-74
2023/09/21 10:36:42;;;;;;;2.20;1.70;;;;;;;;;;5032978;28;20206;-75
2023/09/21 10:39:24;;;;;;;2.65;1.73;;;;;;;;;;5032949;28;20584;-74
2023/09/21 10:41:52;;;;;;;3.33;1.85;;;;;;;;;;5033014;28;20186;-75
2023/09/21 10:44:38;;;;;;;2.90;1.58;;;;;;;;;;5032559;28;20253;-75
2023/09/21 10:47:05;;;;;;;2.70;1.85;;;;;;;;;;5032859;28;20248;-75
2023/09/21 10:49:35;;;;;;;2.60;1.90;;;;;;;;;;5032427;28;20221;-75
2023/09/21 10:52:03;;;;;;;2.67;1.58;;;;;;;;;;5032901;28;20215;-74
2023/09/21 10:54:33;;;;;;;2.75;1.70;;;;;;;;;;5032647;28;20280;-74
2023/09/21 10:57:00;;;;;;;3.60;1.60;;;;;;;;;;5032488;28;20191;-74
2023/09/21 10:59:30;;;;;;;4.43;1.98;;;;;;;;;;5032691;28;20206;-74
2023/09/21 11:01:58;;;;;;;2.83;1.38;;;;;;;;;;5036338;28;20249;-74
2023/09/21 11:04:25;;;;;;;2.38;1.70;;;;;;;;;;5036196;28;20202;-75
2023/09/21 11:06:52;;;;;;;2.97;1.67;;;;;;;;;;5036063;28;20202;-75
2023/09/21 11:09:19;;;;;;;2.42;1.30;;;;;;;;;;5036173;28;20260;-75
2023/09/21 11:11:48;;;;;;;2.10;1.50;;;;;;;;;;5036407;28;20186;-75
2023/09/21 11:14:16;;;;;;;3.45;1.30;;;;;;;;;;5035953;28;20218;-76
2023/09/21 11:16:44;;;;;;;2.60;1.40;;;;;;;;;;5035617;28;20240;-75
2023/09/21 11:19:11;;;;;;;3.80;1.63;;;;;;;;;;5035692;28;20186;-75
2023/09/21 11:21:38;;;;;;;2.08;1.33;;;;;;;;;;5035637;28;20680;-75
2023/09/21 11:24:06;;;;;;;5.78;1.83;;;;;;;;;;5035838;28;20198;-75
2023/09/21 11:26:35;;;;;;;2.55;1.20;;;;;;;;;;5036021;28;20561;-75
2023/09/21 11:29:06;;;;;;;4.03;1.30;;;;;;;;;;5035410;28;20245;-75
2023/09/21 11:31:34;;;;;;;4.95;1.55;;;;;;;;;;5035336;28;20649;-75
2023/09/21 11:34:05;;;;;;;2.03;1.25;;;;;;;;;;5035617;28;20621;-75
2023/09/21 11:36:32;;;;;;;2.13;1.13;;;;;;;;;;5036118;28;20203;-75
2023/09/21 11:38:59;;;;;;;3.75;1.35;;;;;;;;;;5035323;28;20190;-75
2023/09/21 11:41:27;;;;;;;2.63;1.48;;;;;;;;;;5035252;28;20194;-75
2023/09/21 11:43:54;;;;;;;2.70;1.02;;;;;;;;;;5035244;28;20230;-75
2023/09/21 11:46:24;;;;;;;2.40;1.38;;;;;;;;;;5035232;28;20225;-75
2023/09/21 11:48:53;;;;;;;2.10;1.13;;;;;;;;;;5035622;28;20275;-75
2023/09/21 11:51:26;;;;;;;2.75;1.58;;;;;;;;;;5035438;28;20217;-75
2023/09/21 11:53:53;;;;;;;2.65;1.30;;;;;;;;;;5035385;28;20577;-75
2023/09/21 11:56:20;;;;;;;2.10;1.00;;;;;;;;;;5034948;28;20191;-75
2023/09/21 11:58:48;;;;;;;2.30;1.38;;;;;;;;;;5035171;28;20361;-75
2023/09/21 12:01:19;;;;;;;3.25;1.30;;;;;;;;;;5035156;28;20742;-75
2023/09/21 12:03:51;;;;;;;2.53;1.13;;;;;;;;;;5034859;28;20186;-75
2023/09/21 12:06:19;;;;;;;2.30;1.30;;;;;;;;;;5035362;28;20839;-75
2023/09/21 12:08:47;;;;;;;3.10;1.00;;;;;;;;;;5034701;28;20244;-75
2023/09/21 12:11:15;;;;;;;2.40;1.30;;;;;;;;;;5034160;28;20468;-75
2023/09/21 12:13:42;;;;;;;2.20;1.23;;;;;;;;;;5034344;28;20484;-75
2023/09/21 12:16:09;;;;;;;2.10;1.07;;;;;;;;;;5034899;28;20438;-75
2023/09/21 12:18:37;;;;;;;2.57;1.23;;;;;;;;;;5034791;28;20441;-75
2023/09/21 12:21:05;;;;;;;2.00;1.00;;;;;;;;;;5034764;28;20441;-75
2023/09/21 12:23:35;;;;;;;1.93;0.90;;;;;;;;;;5034461;28;20429;-75
2023/09/21 12:26:02;;;;;;;3.17;1.10;;;;;;;;;;5034358;28;20473;-75
2023/09/21 12:28:29;;;;;;;2.53;1.20;;;;;;;;;;5034216;28;20491;-75
2023/09/21 12:30:57;;;;;;;2.83;0.97;;;;;;;;;;5034586;28;20527;-75
2023/09/21 12:33:25;;;;;;;2.20;1.10;;;;;;;;;;5034045;28;20519;-75
2023/09/21 12:35:52;;;;;;;2.03;0.90;;;;;;;;;;5034445;28;20441;-75
2023/09/21 12:38:21;;;;;;;2.27;1.20;;;;;;;;;;5034659;28;20434;-75
2023/09/21 12:40:49;;;;;;;1.90;0.90;;;;;;;;;;5034089;28;20446;-75
2023/09/21 12:43:16;;;;;;;2.20;1.20;;;;;;;;;;5034453;28;20448;-75
2023/09/21 12:45:43;;;;;;;2.63;1.17;;;;;;;;;;5033996;28;20445;-75
2023/09/21 12:48:13;;;;;;;2.00;0.93;;;;;;;;;;5033992;28;20433;-75
2023/09/21 12:50:40;;;;;;;2.10;0.90;;;;;;;;;;5034194;28;20437;-75
2023/09/21 12:53:13;;;;;;;1.90;0.87;;;;;;;;;;5034068;28;20500;-75
2023/09/21 12:55:43;;;;;;;2.30;1.27;;;;;;;;;;5034234;28;20492;-75
2023/09/21 12:58:11;;;;;;;2.23;1.10;;;;;;;;;;5031704;28;20422;-75
2023/09/21 13:00:40;;;;;;;3.40;0.90;;;29.20;34.40;;;;;;5033031;28;20779;-74
2023/09/21 13:03:07;;;;;;;4.13;1.30;;;54.30;6.70;;;;;;5032759;28;20957;-74
2023/09/21 13:05:36;;;;;;;2.00;0.90;;;52.90;6.10;;;;;;5033100;28;20474;-74
2023/09/21 13:08:04;;;;;;;2.90;1.00;;;52.00;6.20;;;;;;5033222;28;20474;-76
2023/09/21 13:10:31;;;;;;;4.20;1.00;;;50.60;6.70;;;;;;5033617;28;20577;-76
2023/09/21 13:13:01;;;;;;;3.03;1.00;;;48.60;7.50;;;;;;5033433;28;20442;-76
2023/09/21 13:15:29;;;;;;;2.23;1.00;;;46.30;8.60;;;;;;5033721;28;20531;-76
2023/09/21 13:17:56;;;;;;;2.67;0.93;;;44.30;10.30;;;;;;5033875;28;20820;-76
2023/09/21 13:20:24;;;;;;;2.40;1.00;;;42.50;11.90;;;;;;5033741;28;20434;-76
2023/09/21 13:22:56;;;;;;;2.67;1.10;;;41.20;13.10;;;;;;5033206;28;20461;-76
2023/09/21 13:25:23;;;;;;;2.80;0.90;;;40.00;14.10;;;;;;5033133;28;20838;-76
2023/09/21 13:27:53;;;;;;;2.50;1.03;;;39.00;14.60;;;;;;5032760;28;20438;-76
2023/09/21 13:30:22;;;;;;;3.47;1.10;;;38.30;16.30;;;;;;5033296;28;20447;-76
2023/09/21 13:32:49;;;;;;;3.70;1.37;;;37.70;17.80;;;;;;5033189;28;20446;-76
2023/09/21 13:35:17;;;;;;;2.87;1.23;;;37.20;16.50;;;;;;5033094;28;20831;-75
2023/09/21 13:37:48;;;;;;;3.07;0.77;;;36.70;18.00;;;;;;5033061;28;20481;-76
2023/09/21 13:40:15;;;;;;;5.60;1.23;;;36.30;18.90;;;;;;5033242;28;20426;-75
2023/09/21 13:42:43;;;;;;;2.83;1.33;;;35.90;19.40;;;;;;5033259;28;20435;-75
2023/09/21 13:45:12;;;;;;;3.40;1.10;;;35.50;21.00;;;;;;5033432;28;20439;-75
2023/09/21 13:47:41;;;;;;;2.70;1.10;;;35.20;21.50;;;;;;5032985;28;20438;-75
2023/09/21 13:50:09;;;;;;;2.80;0.97;;;34.90;21.80;;;;;;5033615;28;20488;-75
2023/09/21 13:52:36;;;;;;;3.83;1.30;;;34.60;21.90;;;;;;5033415;28;20809;-75
2023/09/21 13:55:02;;;;;;;2.40;1.10;;;34.30;22.50;;;;;;5032757;28;20555;-75
2023/09/21 13:57:29;;;;;;;4.10;1.53;;;34.10;22.50;;;;;;5033465;28;20438;-75
2023/09/21 13:59:57;;;;;;;3.90;1.07;;;33.90;22.90;;;;;;5032980;28;20987;-75
2023/09/21 14:02:24;;;;;;;2.47;0.83;;;33.70;23.30;;;;;;5033060;28;20521;-75
2023/09/21 14:04:53;;;;;;;4.37;1.10;;;33.40;23.00;;;;;;5032873;28;20485;-75
2023/09/21 14:07:20;;;;;;;4.60;1.20;;;33.10;23.50;;;;;;5032712;28;20446;-75
2023/09/21 14:09:47;;;;;;;2.60;0.90;;;32.90;23.50;;;;;;5032736;28;20438;-75
2023/09/21 14:12:14;;;;;;;2.83;1.17;;;32.70;24.40;;;;;;5032917;28;20442;-75
2023/09/21 14:14:41;;;;;;;5.50;1.47;;;32.50;24.70;;;;;;5032712;28;20972;-75
2023/09/21 14:17:08;;;;;;;2.43;1.00;;;32.30;24.50;;;;;;5033097;28;20469;-75
2023/09/21 14:19:35;;;;;;;2.90;1.23;;;32.20;24.60;;;;;;5033093;28;20438;-75
2023/09/21 14:22:04;;;;;;;3.60;1.00;;;32.00;24.90;;;;;;5033167;28;20520;-75
2023/09/21 14:24:33;;;;;;;6.17;1.10;;;31.90;25.20;;;;;;5033064;28;20866;-75
2023/09/21 14:27:02;;;;;;;2.80;1.37;;;31.80;25.20;;;;;;5032714;28;20438;-75
2023/09/21 14:29:29;;;;;;;4.67;1.00;;;31.60;25.40;;;;;;5032563;28;20442;-75
2023/09/21 14:31:56;;;;;;;5.67;1.10;;;31.40;25.30;;;;;;5032935;28;20836;-75
2023/09/21 14:34:23;;;;;;;2.60;0.93;;;31.30;26.10;;;;;;5033022;28;20888;-75
2023/09/21 14:36:50;;;;;;;2.83;1.10;;;31.20;26.30;;;;;;5036847;28;20834;-75